<?xml version="1.0" encoding="utf-8"?>
<gpx xmlns:xsi="http://www.w3.org/2001/XMLSchema-instance" xmlns:xsd="http://www.w3.org/2001/XMLSchema" version="1.1" creator="Shapelink.com" xmlns="http://www.topografix.com/GPX/1/1" xmlns:gpxtpx="http://www.garmin.com/xmlschemas/TrackPointExtension/v1">
  <metadata>
    <name>Laufen 4.27 km, 2011-05-20</name>
    <desc></desc>
    <author><name>Jessica Ternander</name></author> 
    <time>2011-05-20T06:51:11Z</time>
  </metadata>
  <trk>
    <name>Laufen 4.27 km, 2011-05-20</name>
    <trkseg>
      <trkpt lat="59.2993453" lon="18.5072845">
        <ele>19.3638</ele>
        <time>2011-05-20T06:51:11Z</time>
      </trkpt>
      <trkpt lat="59.2993334" lon="18.5070492">
        <ele>19.3638</ele>
        <time>2011-05-20T06:51:16Z</time>
      </trkpt>
      <trkpt lat="59.2993184" lon="18.5068259">
        <ele>20.8057</ele>
        <time>2011-05-20T06:51:20Z</time>
      </trkpt>
      <trkpt lat="59.2992861" lon="18.5066068">
        <ele>20.8057</ele>
        <time>2011-05-20T06:51:25Z</time>
      </trkpt>
      <trkpt lat="59.2992786" lon="18.506421">
        <ele>22.2476</ele>
        <time>2011-05-20T06:51:29Z</time>
      </trkpt>
      <trkpt lat="59.2992537" lon="18.5062526">
        <ele>23.6896</ele>
        <time>2011-05-20T06:51:32Z</time>
      </trkpt>
      <trkpt lat="59.2991977" lon="18.5059906">
        <ele>26.5736</ele>
        <time>2011-05-20T06:51:36Z</time>
      </trkpt>
      <trkpt lat="59.2991624" lon="18.5057257">
        <ele>27.5349</ele>
        <time>2011-05-20T06:51:41Z</time>
      </trkpt>
      <trkpt lat="59.299154" lon="18.5054894">
        <ele>27.0543</ele>
        <time>2011-05-20T06:51:45Z</time>
      </trkpt>
      <trkpt lat="59.2992557" lon="18.505306">
        <ele>26.0929</ele>
        <time>2011-05-20T06:51:50Z</time>
      </trkpt>
      <trkpt lat="59.2993575" lon="18.5052057">
        <ele>26.0929</ele>
        <time>2011-05-20T06:51:54Z</time>
      </trkpt>
      <trkpt lat="59.2994762" lon="18.5050775">
        <ele>24.651</ele>
        <time>2011-05-20T06:51:59Z</time>
      </trkpt>
      <trkpt lat="59.2995804" lon="18.5048675">
        <ele>22.7283</ele>
        <time>2011-05-20T06:52:05Z</time>
      </trkpt>
      <trkpt lat="59.2996411" lon="18.5046729">
        <ele>23.209</ele>
        <time>2011-05-20T06:52:10Z</time>
      </trkpt>
      <trkpt lat="59.2996939" lon="18.5044468">
        <ele>23.6896</ele>
        <time>2011-05-20T06:52:15Z</time>
      </trkpt>
      <trkpt lat="59.2997426" lon="18.5041772">
        <ele>25.6123</ele>
        <time>2011-05-20T06:52:20Z</time>
      </trkpt>
      <trkpt lat="59.2997613" lon="18.5040811">
        <ele>26.0929</ele>
        <time>2011-05-20T06:52:22Z</time>
      </trkpt>
      <trkpt lat="59.2998037" lon="18.5039054">
        <ele>26.0929</ele>
        <time>2011-05-20T06:52:26Z</time>
      </trkpt>
      <trkpt lat="59.2998504" lon="18.5037335">
        <ele>27.5349</ele>
        <time>2011-05-20T06:52:30Z</time>
      </trkpt>
      <trkpt lat="59.2999233" lon="18.5035342">
        <ele>28.0155</ele>
        <time>2011-05-20T06:52:35Z</time>
      </trkpt>
      <trkpt lat="59.2999597" lon="18.5034062">
        <ele>29.9381</ele>
        <time>2011-05-20T06:52:38Z</time>
      </trkpt>
      <trkpt lat="59.2999788" lon="18.5033127">
        <ele>30.4188</ele>
        <time>2011-05-20T06:52:40Z</time>
      </trkpt>
      <trkpt lat="59.3000363" lon="18.5031522">
        <ele>30.4188</ele>
        <time>2011-05-20T06:52:44Z</time>
      </trkpt>
      <trkpt lat="59.3001616" lon="18.5028499">
        <ele>27.5349</ele>
        <time>2011-05-20T06:52:52Z</time>
      </trkpt>
      <trkpt lat="59.3002001" lon="18.5027197">
        <ele>26.5736</ele>
        <time>2011-05-20T06:52:55Z</time>
      </trkpt>
      <trkpt lat="59.3002385" lon="18.5026">
        <ele>26.5736</ele>
        <time>2011-05-20T06:52:58Z</time>
      </trkpt>
      <trkpt lat="59.300286" lon="18.5022774">
        <ele>28.0155</ele>
        <time>2011-05-20T06:53:04Z</time>
      </trkpt>
      <trkpt lat="59.3003298" lon="18.50204">
        <ele>28.0155</ele>
        <time>2011-05-20T06:53:09Z</time>
      </trkpt>
      <trkpt lat="59.3003373" lon="18.5019881">
        <ele>28.0155</ele>
        <time>2011-05-20T06:53:10Z</time>
      </trkpt>
      <trkpt lat="59.3003845" lon="18.5016947">
        <ele>28.4962</ele>
        <time>2011-05-20T06:53:16Z</time>
      </trkpt>
      <trkpt lat="59.3004055" lon="18.5014939">
        <ele>27.0543</ele>
        <time>2011-05-20T06:53:20Z</time>
      </trkpt>
      <trkpt lat="59.3004336" lon="18.5013621">
        <ele>27.0543</ele>
        <time>2011-05-20T06:53:23Z</time>
      </trkpt>
      <trkpt lat="59.3004476" lon="18.5010678">
        <ele>26.0929</ele>
        <time>2011-05-20T06:53:28Z</time>
      </trkpt>
      <trkpt lat="59.3004948" lon="18.5008238">
        <ele>25.6123</ele>
        <time>2011-05-20T06:53:33Z</time>
      </trkpt>
      <trkpt lat="59.3005632" lon="18.5005409">
        <ele>24.1703</ele>
        <time>2011-05-20T06:53:40Z</time>
      </trkpt>
      <trkpt lat="59.3006015" lon="18.5003237">
        <ele>25.6123</ele>
        <time>2011-05-20T06:53:45Z</time>
      </trkpt>
      <trkpt lat="59.3006455" lon="18.5001054">
        <ele>25.6123</ele>
        <time>2011-05-20T06:53:50Z</time>
      </trkpt>
      <trkpt lat="59.3006497" lon="18.500056">
        <ele>25.1317</ele>
        <time>2011-05-20T06:53:51Z</time>
      </trkpt>
      <trkpt lat="59.3006955" lon="18.4998264">
        <ele>24.1703</ele>
        <time>2011-05-20T06:53:56Z</time>
      </trkpt>
      <trkpt lat="59.3007474" lon="18.499662">
        <ele>25.1317</ele>
        <time>2011-05-20T06:54:00Z</time>
      </trkpt>
      <trkpt lat="59.3007771" lon="18.4995262">
        <ele>25.1317</ele>
        <time>2011-05-20T06:54:03Z</time>
      </trkpt>
      <trkpt lat="59.3008145" lon="18.4992973">
        <ele>26.0929</ele>
        <time>2011-05-20T06:54:08Z</time>
      </trkpt>
      <trkpt lat="59.3008216" lon="18.4992485">
        <ele>26.0929</ele>
        <time>2011-05-20T06:54:09Z</time>
      </trkpt>
      <trkpt lat="59.3008802" lon="18.4990501">
        <ele>27.5349</ele>
        <time>2011-05-20T06:54:14Z</time>
      </trkpt>
      <trkpt lat="59.3009084" lon="18.4988589">
        <ele>28.9769</ele>
        <time>2011-05-20T06:54:18Z</time>
      </trkpt>
      <trkpt lat="59.3009263" lon="18.4986021">
        <ele>28.9769</ele>
        <time>2011-05-20T06:54:23Z</time>
      </trkpt>
      <trkpt lat="59.3009718" lon="18.4983161">
        <ele>28.4962</ele>
        <time>2011-05-20T06:54:29Z</time>
      </trkpt>
      <trkpt lat="59.3010505" lon="18.4980535">
        <ele>28.9769</ele>
        <time>2011-05-20T06:54:35Z</time>
      </trkpt>
      <trkpt lat="59.3011709" lon="18.4978204">
        <ele>27.0543</ele>
        <time>2011-05-20T06:54:41Z</time>
      </trkpt>
      <trkpt lat="59.3012576" lon="18.4976817">
        <ele>25.6123</ele>
        <time>2011-05-20T06:54:45Z</time>
      </trkpt>
      <trkpt lat="59.3013431" lon="18.4975474">
        <ele>24.1703</ele>
        <time>2011-05-20T06:54:49Z</time>
      </trkpt>
      <trkpt lat="59.3013567" lon="18.4975075">
        <ele>23.6896</ele>
        <time>2011-05-20T06:54:50Z</time>
      </trkpt>
      <trkpt lat="59.3013556" lon="18.4972552">
        <ele>22.2476</ele>
        <time>2011-05-20T06:54:56Z</time>
      </trkpt>
      <trkpt lat="59.3013089" lon="18.4970387">
        <ele>22.2476</ele>
        <time>2011-05-20T06:55:01Z</time>
      </trkpt>
      <trkpt lat="59.3012581" lon="18.4968315">
        <ele>22.2476</ele>
        <time>2011-05-20T06:55:06Z</time>
      </trkpt>
      <trkpt lat="59.3012112" lon="18.4966617">
        <ele>22.7283</ele>
        <time>2011-05-20T06:55:10Z</time>
      </trkpt>
      <trkpt lat="59.3011614" lon="18.4964951">
        <ele>24.1703</ele>
        <time>2011-05-20T06:55:14Z</time>
      </trkpt>
      <trkpt lat="59.3010945" lon="18.4962808">
        <ele>25.6123</ele>
        <time>2011-05-20T06:55:19Z</time>
      </trkpt>
      <trkpt lat="59.3010396" lon="18.496025">
        <ele>26.5736</ele>
        <time>2011-05-20T06:55:24Z</time>
      </trkpt>
      <trkpt lat="59.3009759" lon="18.4958103">
        <ele>27.5349</ele>
        <time>2011-05-20T06:55:28Z</time>
      </trkpt>
      <trkpt lat="59.3009409" lon="18.4956608">
        <ele>27.5349</ele>
        <time>2011-05-20T06:55:31Z</time>
      </trkpt>
      <trkpt lat="59.3008559" lon="18.4954033">
        <ele>29.4575</ele>
        <time>2011-05-20T06:55:37Z</time>
      </trkpt>
      <trkpt lat="59.3007895" lon="18.4952008">
        <ele>30.8995</ele>
        <time>2011-05-20T06:55:42Z</time>
      </trkpt>
      <trkpt lat="59.300719" lon="18.4949458">
        <ele>31.8607</ele>
        <time>2011-05-20T06:55:48Z</time>
      </trkpt>
      <trkpt lat="59.3006648" lon="18.4947767">
        <ele>31.3801</ele>
        <time>2011-05-20T06:55:52Z</time>
      </trkpt>
      <trkpt lat="59.3006073" lon="18.4945044">
        <ele>30.4188</ele>
        <time>2011-05-20T06:55:58Z</time>
      </trkpt>
      <trkpt lat="59.3005469" lon="18.4942575">
        <ele>29.4575</ele>
        <time>2011-05-20T06:56:04Z</time>
      </trkpt>
      <trkpt lat="59.3004894" lon="18.494045">
        <ele>28.9769</ele>
        <time>2011-05-20T06:56:09Z</time>
      </trkpt>
      <trkpt lat="59.3004493" lon="18.4938694">
        <ele>28.9769</ele>
        <time>2011-05-20T06:56:13Z</time>
      </trkpt>
      <trkpt lat="59.3003892" lon="18.4936464">
        <ele>28.9769</ele>
        <time>2011-05-20T06:56:18Z</time>
      </trkpt>
      <trkpt lat="59.3003357" lon="18.4934644">
        <ele>29.4575</ele>
        <time>2011-05-20T06:56:22Z</time>
      </trkpt>
      <trkpt lat="59.3002601" lon="18.4932094">
        <ele>29.9381</ele>
        <time>2011-05-20T06:56:28Z</time>
      </trkpt>
      <trkpt lat="59.300199" lon="18.4929949">
        <ele>28.4962</ele>
        <time>2011-05-20T06:56:32Z</time>
      </trkpt>
      <trkpt lat="59.3001476" lon="18.4927263">
        <ele>27.5349</ele>
        <time>2011-05-20T06:56:38Z</time>
      </trkpt>
      <trkpt lat="59.3000999" lon="18.4925202">
        <ele>26.5736</ele>
        <time>2011-05-20T06:56:43Z</time>
      </trkpt>
      <trkpt lat="59.3000767" lon="18.4924305">
        <ele>26.0929</ele>
        <time>2011-05-20T06:56:45Z</time>
      </trkpt>
      <trkpt lat="59.3000152" lon="18.4921617">
        <ele>25.6123</ele>
        <time>2011-05-20T06:56:51Z</time>
      </trkpt>
      <trkpt lat="59.2999922" lon="18.4920725">
        <ele>25.6123</ele>
        <time>2011-05-20T06:56:53Z</time>
      </trkpt>
      <trkpt lat="59.2999446" lon="18.4918062">
        <ele>25.6123</ele>
        <time>2011-05-20T06:56:59Z</time>
      </trkpt>
      <trkpt lat="59.2998983" lon="18.4916141">
        <ele>25.6123</ele>
        <time>2011-05-20T06:57:03Z</time>
      </trkpt>
      <trkpt lat="59.2998478" lon="18.491372">
        <ele>24.651</ele>
        <time>2011-05-20T06:57:08Z</time>
      </trkpt>
      <trkpt lat="59.2998043" lon="18.4911738">
        <ele>22.7283</ele>
        <time>2011-05-20T06:57:12Z</time>
      </trkpt>
      <trkpt lat="59.2997543" lon="18.4909576">
        <ele>20.8057</ele>
        <time>2011-05-20T06:57:17Z</time>
      </trkpt>
      <trkpt lat="59.2997141" lon="18.4907749">
        <ele>19.8444</ele>
        <time>2011-05-20T06:57:21Z</time>
      </trkpt>
      <trkpt lat="59.2996512" lon="18.4905263">
        <ele>17.9218</ele>
        <time>2011-05-20T06:57:26Z</time>
      </trkpt>
      <trkpt lat="59.2996391" lon="18.4904755">
        <ele>17.4412</ele>
        <time>2011-05-20T06:57:27Z</time>
      </trkpt>
      <trkpt lat="59.2995447" lon="18.4901068">
        <ele>16.9604</ele>
        <time>2011-05-20T06:57:34Z</time>
      </trkpt>
      <trkpt lat="59.2994691" lon="18.4897959">
        <ele>17.4412</ele>
        <time>2011-05-20T06:57:40Z</time>
      </trkpt>
      <trkpt lat="59.2994126" lon="18.4895368">
        <ele>17.4412</ele>
        <time>2011-05-20T06:57:45Z</time>
      </trkpt>
      <trkpt lat="59.2993696" lon="18.4892907">
        <ele>16.4797</ele>
        <time>2011-05-20T06:57:50Z</time>
      </trkpt>
      <trkpt lat="59.2993437" lon="18.4890464">
        <ele>15.5184</ele>
        <time>2011-05-20T06:57:55Z</time>
      </trkpt>
      <trkpt lat="59.2993394" lon="18.4888008">
        <ele>15.0377</ele>
        <time>2011-05-20T06:58:00Z</time>
      </trkpt>
      <trkpt lat="59.2993215" lon="18.4884978">
        <ele>15.5184</ele>
        <time>2011-05-20T06:58:06Z</time>
      </trkpt>
      <trkpt lat="59.2993178" lon="18.4884483">
        <ele>15.5184</ele>
        <time>2011-05-20T06:58:07Z</time>
      </trkpt>
      <trkpt lat="59.2992674" lon="18.4882066">
        <ele>17.4412</ele>
        <time>2011-05-20T06:58:12Z</time>
      </trkpt>
      <trkpt lat="59.299185" lon="18.4879766">
        <ele>18.4023</ele>
        <time>2011-05-20T06:58:18Z</time>
      </trkpt>
      <trkpt lat="59.2991029" lon="18.4877387">
        <ele>19.3638</ele>
        <time>2011-05-20T06:58:24Z</time>
      </trkpt>
      <trkpt lat="59.2990721" lon="18.4875482">
        <ele>19.8444</ele>
        <time>2011-05-20T06:58:28Z</time>
      </trkpt>
      <trkpt lat="59.2990785" lon="18.4873368">
        <ele>18.8831</ele>
        <time>2011-05-20T06:58:33Z</time>
      </trkpt>
      <trkpt lat="59.299092" lon="18.4872494">
        <ele>18.8831</ele>
        <time>2011-05-20T06:58:35Z</time>
      </trkpt>
      <trkpt lat="59.2991361" lon="18.4871226">
        <ele>18.8831</ele>
        <time>2011-05-20T06:58:39Z</time>
      </trkpt>
      <trkpt lat="59.299169" lon="18.4869276">
        <ele>19.3638</ele>
        <time>2011-05-20T06:58:44Z</time>
      </trkpt>
      <trkpt lat="59.2991643" lon="18.4866892">
        <ele>20.325</ele>
        <time>2011-05-20T06:58:49Z</time>
      </trkpt>
      <trkpt lat="59.299161" lon="18.4866472">
        <ele>20.325</ele>
        <time>2011-05-20T06:58:50Z</time>
      </trkpt>
      <trkpt lat="59.2991049" lon="18.4864143">
        <ele>22.7283</ele>
        <time>2011-05-20T06:58:55Z</time>
      </trkpt>
      <trkpt lat="59.2990812" lon="18.4862798">
        <ele>23.6896</ele>
        <time>2011-05-20T06:58:58Z</time>
      </trkpt>
      <trkpt lat="59.2990853" lon="18.4861315">
        <ele>25.1317</ele>
        <time>2011-05-20T06:59:02Z</time>
      </trkpt>
      <trkpt lat="59.2991231" lon="18.4859244">
        <ele>26.0929</ele>
        <time>2011-05-20T06:59:08Z</time>
      </trkpt>
      <trkpt lat="59.2991819" lon="18.4857684">
        <ele>27.5349</ele>
        <time>2011-05-20T06:59:13Z</time>
      </trkpt>
      <trkpt lat="59.2992789" lon="18.4856254">
        <ele>27.5349</ele>
        <time>2011-05-20T06:59:19Z</time>
      </trkpt>
      <trkpt lat="59.2993152" lon="18.4855331">
        <ele>28.4962</ele>
        <time>2011-05-20T06:59:22Z</time>
      </trkpt>
      <trkpt lat="59.2994044" lon="18.4854489">
        <ele>29.4575</ele>
        <time>2011-05-20T06:59:27Z</time>
      </trkpt>
      <trkpt lat="59.2994397" lon="18.4854128">
        <ele>29.4575</ele>
        <time>2011-05-20T06:59:29Z</time>
      </trkpt>
      <trkpt lat="59.2995552" lon="18.485261">
        <ele>30.4188</ele>
        <time>2011-05-20T06:59:35Z</time>
      </trkpt>
      <trkpt lat="59.299624" lon="18.485124">
        <ele>30.8995</ele>
        <time>2011-05-20T06:59:39Z</time>
      </trkpt>
      <trkpt lat="59.2996826" lon="18.4850295">
        <ele>32.8223</ele>
        <time>2011-05-20T06:59:42Z</time>
      </trkpt>
      <trkpt lat="59.2997715" lon="18.4848093">
        <ele>32.3416</ele>
        <time>2011-05-20T06:59:48Z</time>
      </trkpt>
      <trkpt lat="59.2997892" lon="18.4847821">
        <ele>31.8607</ele>
        <time>2011-05-20T06:59:49Z</time>
      </trkpt>
      <trkpt lat="59.2998401" lon="18.4846498">
        <ele>29.4575</ele>
        <time>2011-05-20T06:59:53Z</time>
      </trkpt>
      <trkpt lat="59.2998758" lon="18.4844547">
        <ele>29.4575</ele>
        <time>2011-05-20T06:59:58Z</time>
      </trkpt>
      <trkpt lat="59.2998824" lon="18.484322">
        <ele>30.8995</ele>
        <time>2011-05-20T07:00:01Z</time>
      </trkpt>
      <trkpt lat="59.2998746" lon="18.4840435">
        <ele>32.8223</ele>
        <time>2011-05-20T07:00:07Z</time>
      </trkpt>
      <trkpt lat="59.2998638" lon="18.4837652">
        <ele>33.7834</ele>
        <time>2011-05-20T07:00:12Z</time>
      </trkpt>
      <trkpt lat="59.2998764" lon="18.4835777">
        <ele>33.7834</ele>
        <time>2011-05-20T07:00:16Z</time>
      </trkpt>
      <trkpt lat="59.2998913" lon="18.4834118">
        <ele>33.7834</ele>
        <time>2011-05-20T07:00:19Z</time>
      </trkpt>
      <trkpt lat="59.299985" lon="18.4832278">
        <ele>30.8995</ele>
        <time>2011-05-20T07:00:24Z</time>
      </trkpt>
      <trkpt lat="59.3000514" lon="18.4830559">
        <ele>28.0155</ele>
        <time>2011-05-20T07:00:28Z</time>
      </trkpt>
      <trkpt lat="59.3001548" lon="18.4828462">
        <ele>24.1703</ele>
        <time>2011-05-20T07:00:33Z</time>
      </trkpt>
      <trkpt lat="59.300173" lon="18.4828095">
        <ele>23.209</ele>
        <time>2011-05-20T07:00:34Z</time>
      </trkpt>
      <trkpt lat="59.3002974" lon="18.4826677">
        <ele>19.3638</ele>
        <time>2011-05-20T07:00:39Z</time>
      </trkpt>
      <trkpt lat="59.300418" lon="18.482508">
        <ele>20.8057</ele>
        <time>2011-05-20T07:00:44Z</time>
      </trkpt>
      <trkpt lat="59.3005467" lon="18.4823858">
        <ele>19.3638</ele>
        <time>2011-05-20T07:00:49Z</time>
      </trkpt>
      <trkpt lat="59.3006736" lon="18.4823189">
        <ele>18.4023</ele>
        <time>2011-05-20T07:00:53Z</time>
      </trkpt>
      <trkpt lat="59.3008019" lon="18.4822401">
        <ele>17.9218</ele>
        <time>2011-05-20T07:00:58Z</time>
      </trkpt>
      <trkpt lat="59.3009536" lon="18.4821449">
        <ele>16.4797</ele>
        <time>2011-05-20T07:01:04Z</time>
      </trkpt>
      <trkpt lat="59.3011129" lon="18.4820642">
        <ele>16.9604</ele>
        <time>2011-05-20T07:01:10Z</time>
      </trkpt>
      <trkpt lat="59.3012335" lon="18.4820888">
        <ele>15.999</ele>
        <time>2011-05-20T07:01:14Z</time>
      </trkpt>
      <trkpt lat="59.3013548" lon="18.4822713">
        <ele>15.5184</ele>
        <time>2011-05-20T07:01:19Z</time>
      </trkpt>
      <trkpt lat="59.3014436" lon="18.4824947">
        <ele>15.5184</ele>
        <time>2011-05-20T07:01:24Z</time>
      </trkpt>
      <trkpt lat="59.301515" lon="18.4827256">
        <ele>14.557</ele>
        <time>2011-05-20T07:01:29Z</time>
      </trkpt>
      <trkpt lat="59.3015826" lon="18.4829002">
        <ele>13.1151</ele>
        <time>2011-05-20T07:01:33Z</time>
      </trkpt>
      <trkpt lat="59.3016427" lon="18.4830657">
        <ele>12.1538</ele>
        <time>2011-05-20T07:01:37Z</time>
      </trkpt>
      <trkpt lat="59.301712" lon="18.4833532">
        <ele>10.7118</ele>
        <time>2011-05-20T07:01:43Z</time>
      </trkpt>
      <trkpt lat="59.3017725" lon="18.4835186">
        <ele>11.1925</ele>
        <time>2011-05-20T07:01:47Z</time>
      </trkpt>
      <trkpt lat="59.3018288" lon="18.4836835">
        <ele>10.7118</ele>
        <time>2011-05-20T07:01:51Z</time>
      </trkpt>
      <trkpt lat="59.3019008" lon="18.4840158">
        <ele>11.1925</ele>
        <time>2011-05-20T07:01:58Z</time>
      </trkpt>
      <trkpt lat="59.3019644" lon="18.4842361">
        <ele>11.6732</ele>
        <time>2011-05-20T07:02:03Z</time>
      </trkpt>
      <trkpt lat="59.3019997" lon="18.4844697">
        <ele>12.1538</ele>
        <time>2011-05-20T07:02:08Z</time>
      </trkpt>
      <trkpt lat="59.3020347" lon="18.4846457">
        <ele>12.1538</ele>
        <time>2011-05-20T07:02:12Z</time>
      </trkpt>
      <trkpt lat="59.302118" lon="18.4848723">
        <ele>11.1925</ele>
        <time>2011-05-20T07:02:18Z</time>
      </trkpt>
      <trkpt lat="59.3022332" lon="18.48507">
        <ele>11.6732</ele>
        <time>2011-05-20T07:02:24Z</time>
      </trkpt>
      <trkpt lat="59.3023527" lon="18.485197">
        <ele>12.1538</ele>
        <time>2011-05-20T07:02:30Z</time>
      </trkpt>
      <trkpt lat="59.3024281" lon="18.4852711">
        <ele>13.5958</ele>
        <time>2011-05-20T07:02:34Z</time>
      </trkpt>
      <trkpt lat="59.3025502" lon="18.4854021">
        <ele>15.5184</ele>
        <time>2011-05-20T07:02:39Z</time>
      </trkpt>
      <trkpt lat="59.30265" lon="18.4855654">
        <ele>15.999</ele>
        <time>2011-05-20T07:02:44Z</time>
      </trkpt>
      <trkpt lat="59.3027477" lon="18.4857724">
        <ele>15.999</ele>
        <time>2011-05-20T07:02:49Z</time>
      </trkpt>
      <trkpt lat="59.302829" lon="18.4859652">
        <ele>15.0377</ele>
        <time>2011-05-20T07:02:54Z</time>
      </trkpt>
      <trkpt lat="59.3028841" lon="18.4861832">
        <ele>13.1151</ele>
        <time>2011-05-20T07:02:59Z</time>
      </trkpt>
      <trkpt lat="59.3029345" lon="18.4864028">
        <ele>12.6344</ele>
        <time>2011-05-20T07:03:04Z</time>
      </trkpt>
      <trkpt lat="59.3029561" lon="18.486583">
        <ele>12.1538</ele>
        <time>2011-05-20T07:03:08Z</time>
      </trkpt>
      <trkpt lat="59.3030124" lon="18.4867656">
        <ele>11.6732</ele>
        <time>2011-05-20T07:03:12Z</time>
      </trkpt>
      <trkpt lat="59.3030864" lon="18.4869914">
        <ele>11.1925</ele>
        <time>2011-05-20T07:03:17Z</time>
      </trkpt>
      <trkpt lat="59.3032398" lon="18.4871706">
        <ele>11.6732</ele>
        <time>2011-05-20T07:03:24Z</time>
      </trkpt>
      <trkpt lat="59.3033545" lon="18.4872414">
        <ele>12.1538</ele>
        <time>2011-05-20T07:03:29Z</time>
      </trkpt>
      <trkpt lat="59.3034794" lon="18.4872639">
        <ele>11.6732</ele>
        <time>2011-05-20T07:03:34Z</time>
      </trkpt>
      <trkpt lat="59.3036131" lon="18.4872731">
        <ele>10.2312</ele>
        <time>2011-05-20T07:03:39Z</time>
      </trkpt>
      <trkpt lat="59.3037385" lon="18.4871375">
        <ele>8.78918</ele>
        <time>2011-05-20T07:03:45Z</time>
      </trkpt>
      <trkpt lat="59.3038426" lon="18.486942">
        <ele>7.82788</ele>
        <time>2011-05-20T07:03:50Z</time>
      </trkpt>
      <trkpt lat="59.3038604" lon="18.4869031">
        <ele>7.82788</ele>
        <time>2011-05-20T07:03:51Z</time>
      </trkpt>
      <trkpt lat="59.30392" lon="18.4866889">
        <ele>4.46326</ele>
        <time>2011-05-20T07:03:56Z</time>
      </trkpt>
      <trkpt lat="59.3039421" lon="18.4864915">
        <ele>3.50195</ele>
        <time>2011-05-20T07:04:00Z</time>
      </trkpt>
      <trkpt lat="59.3039851" lon="18.4862507">
        <ele>3.02124</ele>
        <time>2011-05-20T07:04:06Z</time>
      </trkpt>
      <trkpt lat="59.3039927" lon="18.4862035">
        <ele>3.02124</ele>
        <time>2011-05-20T07:04:07Z</time>
      </trkpt>
      <trkpt lat="59.30403" lon="18.4859189">
        <ele>3.02124</ele>
        <time>2011-05-20T07:04:13Z</time>
      </trkpt>
      <trkpt lat="59.3041096" lon="18.4857052">
        <ele>4.46326</ele>
        <time>2011-05-20T07:04:18Z</time>
      </trkpt>
      <trkpt lat="59.3042703" lon="18.4855568">
        <ele>4.94385</ele>
        <time>2011-05-20T07:04:24Z</time>
      </trkpt>
      <trkpt lat="59.3044206" lon="18.4855249">
        <ele>3.02124</ele>
        <time>2011-05-20T07:04:30Z</time>
      </trkpt>
      <trkpt lat="59.3045523" lon="18.4854926">
        <ele>3.02124</ele>
        <time>2011-05-20T07:04:35Z</time>
      </trkpt>
      <trkpt lat="59.3046653" lon="18.4853743">
        <ele>2.54065</ele>
        <time>2011-05-20T07:04:40Z</time>
      </trkpt>
      <trkpt lat="59.304775" lon="18.4852317">
        <ele>2.54065</ele>
        <time>2011-05-20T07:04:45Z</time>
      </trkpt>
      <trkpt lat="59.3048133" lon="18.4853616">
        <ele>1.09863</ele>
        <time>2011-05-20T07:04:49Z</time>
      </trkpt>
      <trkpt lat="59.3048404" lon="18.4855689">
        <ele>0</ele>
        <time>2011-05-20T07:04:53Z</time>
      </trkpt>
      <trkpt lat="59.3048256" lon="18.4858376">
        <ele>0</ele>
        <time>2011-05-20T07:04:58Z</time>
      </trkpt>
      <trkpt lat="59.3048196" lon="18.4859871">
        <ele>0</ele>
        <time>2011-05-20T07:05:01Z</time>
      </trkpt>
      <trkpt lat="59.3048274" lon="18.4863366">
        <ele>1.09863</ele>
        <time>2011-05-20T07:05:07Z</time>
      </trkpt>
      <trkpt lat="59.3048194" lon="18.4865788">
        <ele>2.54065</ele>
        <time>2011-05-20T07:05:11Z</time>
      </trkpt>
      <trkpt lat="59.3048206" lon="18.4868489">
        <ele>3.98267</ele>
        <time>2011-05-20T07:05:16Z</time>
      </trkpt>
      <trkpt lat="59.304832" lon="18.4870774">
        <ele>5.42456</ele>
        <time>2011-05-20T07:05:20Z</time>
      </trkpt>
      <trkpt lat="59.3048391" lon="18.4873339">
        <ele>5.42456</ele>
        <time>2011-05-20T07:05:25Z</time>
      </trkpt>
      <trkpt lat="59.30486" lon="18.4875659">
        <ele>8.30859</ele>
        <time>2011-05-20T07:05:30Z</time>
      </trkpt>
      <trkpt lat="59.3048769" lon="18.4877959">
        <ele>9.2699</ele>
        <time>2011-05-20T07:05:35Z</time>
      </trkpt>
      <trkpt lat="59.3048657" lon="18.4880586">
        <ele>10.2312</ele>
        <time>2011-05-20T07:05:40Z</time>
      </trkpt>
      <trkpt lat="59.3048331" lon="18.4883148">
        <ele>8.30859</ele>
        <time>2011-05-20T07:05:45Z</time>
      </trkpt>
      <trkpt lat="59.3048134" lon="18.4885806">
        <ele>7.82788</ele>
        <time>2011-05-20T07:05:50Z</time>
      </trkpt>
      <trkpt lat="59.3048036" lon="18.4888355">
        <ele>8.30859</ele>
        <time>2011-05-20T07:05:55Z</time>
      </trkpt>
      <trkpt lat="59.30479" lon="18.4890919">
        <ele>7.34717</ele>
        <time>2011-05-20T07:06:00Z</time>
      </trkpt>
      <trkpt lat="59.304784" lon="18.4893912">
        <ele>6.86646</ele>
        <time>2011-05-20T07:06:06Z</time>
      </trkpt>
      <trkpt lat="59.3047769" lon="18.4896358">
        <ele>6.38586</ele>
        <time>2011-05-20T07:06:11Z</time>
      </trkpt>
      <trkpt lat="59.3047462" lon="18.4898662">
        <ele>7.34717</ele>
        <time>2011-05-20T07:06:15Z</time>
      </trkpt>
      <trkpt lat="59.3047246" lon="18.4900913">
        <ele>8.30859</ele>
        <time>2011-05-20T07:06:19Z</time>
      </trkpt>
      <trkpt lat="59.3047165" lon="18.4903787">
        <ele>7.82788</ele>
        <time>2011-05-20T07:06:24Z</time>
      </trkpt>
      <trkpt lat="59.3047003" lon="18.4905786">
        <ele>6.86646</ele>
        <time>2011-05-20T07:06:28Z</time>
      </trkpt>
      <trkpt lat="59.3046781" lon="18.490854">
        <ele>6.38586</ele>
        <time>2011-05-20T07:06:33Z</time>
      </trkpt>
      <trkpt lat="59.3046439" lon="18.4911926">
        <ele>6.38586</ele>
        <time>2011-05-20T07:06:40Z</time>
      </trkpt>
      <trkpt lat="59.3046133" lon="18.4914965">
        <ele>6.38586</ele>
        <time>2011-05-20T07:06:46Z</time>
      </trkpt>
      <trkpt lat="59.3045835" lon="18.4918057">
        <ele>6.86646</ele>
        <time>2011-05-20T07:06:52Z</time>
      </trkpt>
      <trkpt lat="59.3045451" lon="18.4920657">
        <ele>5.90527</ele>
        <time>2011-05-20T07:06:57Z</time>
      </trkpt>
      <trkpt lat="59.3045062" lon="18.4923538">
        <ele>4.94385</ele>
        <time>2011-05-20T07:07:03Z</time>
      </trkpt>
      <trkpt lat="59.3044634" lon="18.4925517">
        <ele>5.42456</ele>
        <time>2011-05-20T07:07:07Z</time>
      </trkpt>
      <trkpt lat="59.3044099" lon="18.4928066">
        <ele>5.90527</ele>
        <time>2011-05-20T07:07:12Z</time>
      </trkpt>
      <trkpt lat="59.3043634" lon="18.4930371">
        <ele>5.90527</ele>
        <time>2011-05-20T07:07:17Z</time>
      </trkpt>
      <trkpt lat="59.3043192" lon="18.4932675">
        <ele>5.42456</ele>
        <time>2011-05-20T07:07:22Z</time>
      </trkpt>
      <trkpt lat="59.3042617" lon="18.493539">
        <ele>5.90527</ele>
        <time>2011-05-20T07:07:28Z</time>
      </trkpt>
      <trkpt lat="59.3041816" lon="18.4937669">
        <ele>5.42456</ele>
        <time>2011-05-20T07:07:33Z</time>
      </trkpt>
      <trkpt lat="59.3041465" lon="18.4939342">
        <ele>4.94385</ele>
        <time>2011-05-20T07:07:37Z</time>
      </trkpt>
      <trkpt lat="59.3040825" lon="18.4941622">
        <ele>4.46326</ele>
        <time>2011-05-20T07:07:42Z</time>
      </trkpt>
      <trkpt lat="59.3040209" lon="18.4943894">
        <ele>5.42456</ele>
        <time>2011-05-20T07:07:47Z</time>
      </trkpt>
      <trkpt lat="59.3039421" lon="18.4946318">
        <ele>5.42456</ele>
        <time>2011-05-20T07:07:52Z</time>
      </trkpt>
      <trkpt lat="59.3038567" lon="18.4948886">
        <ele>4.46326</ele>
        <time>2011-05-20T07:07:58Z</time>
      </trkpt>
      <trkpt lat="59.3038308" lon="18.4950651">
        <ele>4.94385</ele>
        <time>2011-05-20T07:08:02Z</time>
      </trkpt>
      <trkpt lat="59.3037272" lon="18.4954962">
        <ele>6.86646</ele>
        <time>2011-05-20T07:08:11Z</time>
      </trkpt>
      <trkpt lat="59.3036814" lon="18.495758">
        <ele>7.34717</ele>
        <time>2011-05-20T07:08:16Z</time>
      </trkpt>
      <trkpt lat="59.3036523" lon="18.4960755">
        <ele>6.86646</ele>
        <time>2011-05-20T07:08:22Z</time>
      </trkpt>
      <trkpt lat="59.3036153" lon="18.4963295">
        <ele>6.86646</ele>
        <time>2011-05-20T07:08:27Z</time>
      </trkpt>
      <trkpt lat="59.30358" lon="18.4966127">
        <ele>6.86646</ele>
        <time>2011-05-20T07:08:32Z</time>
      </trkpt>
      <trkpt lat="59.3035231" lon="18.4969728">
        <ele>4.94385</ele>
        <time>2011-05-20T07:08:39Z</time>
      </trkpt>
      <trkpt lat="59.3034811" lon="18.4972162">
        <ele>4.46326</ele>
        <time>2011-05-20T07:08:44Z</time>
      </trkpt>
      <trkpt lat="59.3034314" lon="18.4975494">
        <ele>4.46326</ele>
        <time>2011-05-20T07:08:51Z</time>
      </trkpt>
      <trkpt lat="59.3034048" lon="18.4977515">
        <ele>4.94385</ele>
        <time>2011-05-20T07:08:55Z</time>
      </trkpt>
      <trkpt lat="59.3033726" lon="18.4979284">
        <ele>3.98267</ele>
        <time>2011-05-20T07:08:59Z</time>
      </trkpt>
      <trkpt lat="59.3033313" lon="18.4982042">
        <ele>3.50195</ele>
        <time>2011-05-20T07:09:05Z</time>
      </trkpt>
      <trkpt lat="59.3032972" lon="18.4984499">
        <ele>3.50195</ele>
        <time>2011-05-20T07:09:10Z</time>
      </trkpt>
      <trkpt lat="59.3032501" lon="18.4987742">
        <ele>3.50195</ele>
        <time>2011-05-20T07:09:17Z</time>
      </trkpt>
      <trkpt lat="59.3032133" lon="18.4990625">
        <ele>3.98267</ele>
        <time>2011-05-20T07:09:23Z</time>
      </trkpt>
      <trkpt lat="59.3031755" lon="18.499336">
        <ele>3.98267</ele>
        <time>2011-05-20T07:09:29Z</time>
      </trkpt>
      <trkpt lat="59.3031247" lon="18.4995516">
        <ele>3.50195</ele>
        <time>2011-05-20T07:09:34Z</time>
      </trkpt>
      <trkpt lat="59.3030688" lon="18.4998446">
        <ele>5.42456</ele>
        <time>2011-05-20T07:09:40Z</time>
      </trkpt>
      <trkpt lat="59.3030426" lon="18.5000762">
        <ele>7.34717</ele>
        <time>2011-05-20T07:09:45Z</time>
      </trkpt>
      <trkpt lat="59.3030372" lon="18.5002022">
        <ele>7.82788</ele>
        <time>2011-05-20T07:09:48Z</time>
      </trkpt>
      <trkpt lat="59.3030137" lon="18.5004452">
        <ele>9.75061</ele>
        <time>2011-05-20T07:09:53Z</time>
      </trkpt>
      <trkpt lat="59.3029911" lon="18.5005849">
        <ele>10.7118</ele>
        <time>2011-05-20T07:09:56Z</time>
      </trkpt>
      <trkpt lat="59.3029507" lon="18.5008497">
        <ele>9.75061</ele>
        <time>2011-05-20T07:10:02Z</time>
      </trkpt>
      <trkpt lat="59.3029264" lon="18.5010199">
        <ele>9.75061</ele>
        <time>2011-05-20T07:10:06Z</time>
      </trkpt>
      <trkpt lat="59.3028936" lon="18.5013444">
        <ele>10.2312</ele>
        <time>2011-05-20T07:10:13Z</time>
      </trkpt>
      <trkpt lat="59.3028466" lon="18.5015692">
        <ele>11.1925</ele>
        <time>2011-05-20T07:10:18Z</time>
      </trkpt>
      <trkpt lat="59.3028062" lon="18.5018101">
        <ele>11.1925</ele>
        <time>2011-05-20T07:10:23Z</time>
      </trkpt>
      <trkpt lat="59.3027554" lon="18.502043">
        <ele>11.1925</ele>
        <time>2011-05-20T07:10:28Z</time>
      </trkpt>
      <trkpt lat="59.3026471" lon="18.5020466">
        <ele>12.1538</ele>
        <time>2011-05-20T07:10:33Z</time>
      </trkpt>
      <trkpt lat="59.3025807" lon="18.5019697">
        <ele>13.1151</ele>
        <time>2011-05-20T07:10:36Z</time>
      </trkpt>
      <trkpt lat="59.3025075" lon="18.5018167">
        <ele>14.0764</ele>
        <time>2011-05-20T07:10:40Z</time>
      </trkpt>
      <trkpt lat="59.3024421" lon="18.5015931">
        <ele>15.0377</ele>
        <time>2011-05-20T07:10:45Z</time>
      </trkpt>
      <trkpt lat="59.3023824" lon="18.5013948">
        <ele>15.5184</ele>
        <time>2011-05-20T07:10:49Z</time>
      </trkpt>
      <trkpt lat="59.3023304" lon="18.5011667">
        <ele>15.5184</ele>
        <time>2011-05-20T07:10:54Z</time>
      </trkpt>
      <trkpt lat="59.3022687" lon="18.5009662">
        <ele>16.9604</ele>
        <time>2011-05-20T07:10:59Z</time>
      </trkpt>
      <trkpt lat="59.302202" lon="18.5007742">
        <ele>17.4412</ele>
        <time>2011-05-20T07:11:04Z</time>
      </trkpt>
      <trkpt lat="59.3021156" lon="18.5004871">
        <ele>19.3638</ele>
        <time>2011-05-20T07:11:11Z</time>
      </trkpt>
      <trkpt lat="59.3020333" lon="18.5001804">
        <ele>19.3638</ele>
        <time>2011-05-20T07:11:18Z</time>
      </trkpt>
      <trkpt lat="59.3019887" lon="18.5000137">
        <ele>20.8057</ele>
        <time>2011-05-20T07:11:22Z</time>
      </trkpt>
      <trkpt lat="59.3019363" lon="18.4998285">
        <ele>21.767</ele>
        <time>2011-05-20T07:11:27Z</time>
      </trkpt>
      <trkpt lat="59.3019067" lon="18.4997094">
        <ele>22.7283</ele>
        <time>2011-05-20T07:11:30Z</time>
      </trkpt>
      <trkpt lat="59.3018757" lon="18.4995499">
        <ele>23.209</ele>
        <time>2011-05-20T07:11:34Z</time>
      </trkpt>
      <trkpt lat="59.3018292" lon="18.4993372">
        <ele>22.7283</ele>
        <time>2011-05-20T07:11:39Z</time>
      </trkpt>
      <trkpt lat="59.3018037" lon="18.4991413">
        <ele>19.3638</ele>
        <time>2011-05-20T07:11:44Z</time>
      </trkpt>
      <trkpt lat="59.3018178" lon="18.4989916">
        <ele>16.4797</ele>
        <time>2011-05-20T07:11:48Z</time>
      </trkpt>
      <trkpt lat="59.3018091" lon="18.4987196">
        <ele>15.999</ele>
        <time>2011-05-20T07:11:54Z</time>
      </trkpt>
      <trkpt lat="59.3017355" lon="18.498427">
        <ele>20.325</ele>
        <time>2011-05-20T07:12:00Z</time>
      </trkpt>
      <trkpt lat="59.3016795" lon="18.498233">
        <ele>22.2476</ele>
        <time>2011-05-20T07:12:04Z</time>
      </trkpt>
      <trkpt lat="59.3016333" lon="18.4980716">
        <ele>23.209</ele>
        <time>2011-05-20T07:12:08Z</time>
      </trkpt>
      <trkpt lat="59.301587" lon="18.497922">
        <ele>22.7283</ele>
        <time>2011-05-20T07:12:12Z</time>
      </trkpt>
      <trkpt lat="59.3015404" lon="18.4977624">
        <ele>23.209</ele>
        <time>2011-05-20T07:12:16Z</time>
      </trkpt>
      <trkpt lat="59.3014593" lon="18.4976106">
        <ele>23.209</ele>
        <time>2011-05-20T07:12:21Z</time>
      </trkpt>
      <trkpt lat="59.3014008" lon="18.497608">
        <ele>23.6896</ele>
        <time>2011-05-20T07:12:24Z</time>
      </trkpt>
      <trkpt lat="59.3012587" lon="18.4977664">
        <ele>23.6896</ele>
        <time>2011-05-20T07:12:31Z</time>
      </trkpt>
      <trkpt lat="59.3011749" lon="18.497879">
        <ele>24.651</ele>
        <time>2011-05-20T07:12:36Z</time>
      </trkpt>
      <trkpt lat="59.3010966" lon="18.4980248">
        <ele>25.6123</ele>
        <time>2011-05-20T07:12:41Z</time>
      </trkpt>
      <trkpt lat="59.3010418" lon="18.4981482">
        <ele>27.0543</ele>
        <time>2011-05-20T07:12:44Z</time>
      </trkpt>
      <trkpt lat="59.3009977" lon="18.498333">
        <ele>27.0543</ele>
        <time>2011-05-20T07:12:49Z</time>
      </trkpt>
      <trkpt lat="59.3009574" lon="18.4985275">
        <ele>27.0543</ele>
        <time>2011-05-20T07:12:54Z</time>
      </trkpt>
      <trkpt lat="59.300918" lon="18.4988584">
        <ele>28.0155</ele>
        <time>2011-05-20T07:13:01Z</time>
      </trkpt>
      <trkpt lat="59.3008805" lon="18.4990698">
        <ele>26.5736</ele>
        <time>2011-05-20T07:13:06Z</time>
      </trkpt>
      <trkpt lat="59.3008564" lon="18.499245">
        <ele>26.0929</ele>
        <time>2011-05-20T07:13:10Z</time>
      </trkpt>
      <trkpt lat="59.3008201" lon="18.4994858">
        <ele>26.5736</ele>
        <time>2011-05-20T07:13:15Z</time>
      </trkpt>
      <trkpt lat="59.3007792" lon="18.4997254">
        <ele>27.5349</ele>
        <time>2011-05-20T07:13:20Z</time>
      </trkpt>
      <trkpt lat="59.3007389" lon="18.4999583">
        <ele>28.0155</ele>
        <time>2011-05-20T07:13:25Z</time>
      </trkpt>
      <trkpt lat="59.3007015" lon="18.5001981">
        <ele>28.9769</ele>
        <time>2011-05-20T07:13:30Z</time>
      </trkpt>
      <trkpt lat="59.3006541" lon="18.5005042">
        <ele>30.8995</ele>
        <time>2011-05-20T07:13:36Z</time>
      </trkpt>
      <trkpt lat="59.3006147" lon="18.5007485">
        <ele>30.4188</ele>
        <time>2011-05-20T07:13:41Z</time>
      </trkpt>
      <trkpt lat="59.3005704" lon="18.5010273">
        <ele>30.4188</ele>
        <time>2011-05-20T07:13:47Z</time>
      </trkpt>
      <trkpt lat="59.3005269" lon="18.5012577">
        <ele>29.4575</ele>
        <time>2011-05-20T07:13:52Z</time>
      </trkpt>
      <trkpt lat="59.3004756" lon="18.5015165">
        <ele>29.4575</ele>
        <time>2011-05-20T07:13:58Z</time>
      </trkpt>
      <trkpt lat="59.3004172" lon="18.5017365">
        <ele>29.4575</ele>
        <time>2011-05-20T07:14:03Z</time>
      </trkpt>
      <trkpt lat="59.30039" lon="18.5019299">
        <ele>29.9381</ele>
        <time>2011-05-20T07:14:07Z</time>
      </trkpt>
      <trkpt lat="59.300339" lon="18.50224">
        <ele>30.4188</ele>
        <time>2011-05-20T07:14:13Z</time>
      </trkpt>
      <trkpt lat="59.3002953" lon="18.5024691">
        <ele>31.3801</ele>
        <time>2011-05-20T07:14:18Z</time>
      </trkpt>
      <trkpt lat="59.3002496" lon="18.502691">
        <ele>33.3029</ele>
        <time>2011-05-20T07:14:23Z</time>
      </trkpt>
      <trkpt lat="59.3001974" lon="18.5029206">
        <ele>34.2642</ele>
        <time>2011-05-20T07:14:28Z</time>
      </trkpt>
      <trkpt lat="59.3001198" lon="18.5031211">
        <ele>34.7449</ele>
        <time>2011-05-20T07:14:33Z</time>
      </trkpt>
      <trkpt lat="59.3000343" lon="18.5033382">
        <ele>34.2642</ele>
        <time>2011-05-20T07:14:38Z</time>
      </trkpt>
      <trkpt lat="59.2999389" lon="18.5036056">
        <ele>32.8223</ele>
        <time>2011-05-20T07:14:44Z</time>
      </trkpt>
      <trkpt lat="59.2998515" lon="18.5038794">
        <ele>32.3416</ele>
        <time>2011-05-20T07:14:50Z</time>
      </trkpt>
      <trkpt lat="59.299768" lon="18.5042194">
        <ele>32.3416</ele>
        <time>2011-05-20T07:14:57Z</time>
      </trkpt>
      <trkpt lat="59.2997001" lon="18.504455">
        <ele>30.4188</ele>
        <time>2011-05-20T07:15:02Z</time>
      </trkpt>
      <trkpt lat="59.2996572" lon="18.504657">
        <ele>29.9381</ele>
        <time>2011-05-20T07:15:06Z</time>
      </trkpt>
      <trkpt lat="59.2996016" lon="18.5048582">
        <ele>28.9769</ele>
        <time>2011-05-20T07:15:10Z</time>
      </trkpt>
      <trkpt lat="59.299509" lon="18.5050813">
        <ele>28.4962</ele>
        <time>2011-05-20T07:15:15Z</time>
      </trkpt>
      <trkpt lat="59.2994006" lon="18.5052378">
        <ele>28.9769</ele>
        <time>2011-05-20T07:15:20Z</time>
      </trkpt>
      <trkpt lat="59.2993059" lon="18.5053161">
        <ele>27.5349</ele>
        <time>2011-05-20T07:15:24Z</time>
      </trkpt>
      <trkpt lat="59.2992407" lon="18.5053714">
        <ele>27.0543</ele>
        <time>2011-05-20T07:15:27Z</time>
      </trkpt>
      <trkpt lat="59.2992049" lon="18.5055717">
        <ele>26.0929</ele>
        <time>2011-05-20T07:15:32Z</time>
      </trkpt>
      <trkpt lat="59.299212" lon="18.5057744">
        <ele>25.6123</ele>
        <time>2011-05-20T07:15:36Z</time>
      </trkpt>
      <trkpt lat="59.2992203" lon="18.5058784">
        <ele>24.1703</ele>
        <time>2011-05-20T07:15:38Z</time>
      </trkpt>
      <trkpt lat="59.2992696" lon="18.5062755">
        <ele>23.6896</ele>
        <time>2011-05-20T07:15:45Z</time>
      </trkpt>
      <trkpt lat="59.2992967" lon="18.5065058">
        <ele>23.6896</ele>
        <time>2011-05-20T07:15:49Z</time>
      </trkpt>
      <trkpt lat="59.2993311" lon="18.5067232">
        <ele>24.1703</ele>
        <time>2011-05-20T07:15:53Z</time>
      </trkpt>
      <trkpt lat="59.2993749" lon="18.5069902">
        <ele>24.651</ele>
        <time>2011-05-20T07:15:58Z</time>
      </trkpt>
      <trkpt lat="59.2993707" lon="18.5072124">
        <ele>23.209</ele>
        <time>2011-05-20T07:16:02Z</time>
      </trkpt>
    </trkseg>
  </trk>
</gpx>